createdAt,value
2018-05-16T00:03:28.323Z,0
2018-05-16T00:08:28.888Z,0
2018-05-16T00:13:28.286Z,0
2018-05-16T00:18:28.935Z,0
2018-05-16T00:23:28.398Z,0
2018-05-16T00:28:28.858Z,0
2018-05-16T00:33:28.191Z,0
2018-05-16T00:38:28.618Z,0
2018-05-16T00:43:29.043Z,0
2018-05-16T00:48:28.571Z,0
2018-05-16T00:53:28.959Z,0
2018-05-16T00:58:28.315Z,0
2018-05-16T01:03:28.734Z,0
2018-05-16T01:08:28.894Z,0
2018-05-16T01:13:28.206Z,0
2018-05-16T01:18:29.139Z,0
2018-05-16T01:23:28.605Z,0
2018-05-16T01:28:28.969Z,0
2018-05-16T01:33:28.459Z,0
2018-05-16T01:38:28.870Z,0
2018-05-16T01:43:29.263Z,0
2018-05-16T01:48:28.702Z,0
2018-05-16T01:53:29.118Z,0
2018-05-16T01:58:28.471Z,0
2018-05-16T02:03:28.918Z,0
2018-05-16T02:08:28.316Z,0
2018-05-16T02:13:28.733Z,0
2018-05-16T02:18:29.131Z,0
2018-05-16T02:23:28.548Z,0
2018-05-16T02:28:28.821Z,0
2018-05-16T02:33:29.261Z,0
2018-05-16T02:38:28.738Z,0
2018-05-16T02:43:29.200Z,0
2018-05-16T02:48:28.572Z,0
2018-05-16T02:53:28.883Z,0
2018-05-16T02:58:29.211Z,0
2018-05-16T03:03:28.569Z,0
2018-05-16T03:08:28.908Z,0
2018-05-16T03:13:29.294Z,0
2018-05-16T03:18:28.835Z,0
2018-05-16T03:23:29.171Z,0
2018-05-16T03:28:28.569Z,0
2018-05-16T03:33:28.911Z,3.8
2018-05-16T03:38:29.160Z,3.8
2018-05-16T03:43:28.680Z,8
2018-05-16T03:48:28.984Z,8
2018-05-16T03:53:28.473Z,11
2018-05-16T03:58:29.010Z,11
2018-05-16T04:03:28.445Z,11
2018-05-16T04:08:28.759Z,11
2018-05-16T04:13:29.272Z,17
2018-05-16T04:18:28.742Z,17
2018-05-16T04:23:29.196Z,25.5
2018-05-16T04:28:28.752Z,25.5
2018-05-16T04:33:28.844Z,33
2018-05-16T04:38:29.365Z,33
2018-05-16T04:43:28.812Z,30.5
2018-05-16T04:48:29.419Z,30.5
2018-05-16T04:53:29.009Z,34
2018-05-16T04:58:28.428Z,34
2018-05-16T05:03:29.424Z,36
2018-05-16T05:08:29.255Z,36
2018-05-16T05:13:29.157Z,55
2018-05-16T05:18:28.789Z,55
2018-05-16T05:23:29.266Z,108.4
2018-05-16T05:28:29.234Z,108.4
2018-05-16T05:33:28.782Z,136.5
2018-05-16T05:38:29.110Z,136.5
2018-05-16T05:43:28.723Z,124.7
2018-05-16T05:48:29.092Z,124.7
2018-05-16T05:53:28.458Z,169.2
2018-05-16T05:58:28.798Z,169.2
2018-05-16T06:03:29.308Z,135.2
2018-05-16T06:08:28.884Z,135.2
2018-05-16T06:13:29.372Z,207
2018-05-16T06:18:29.131Z,207
2018-05-16T06:23:28.507Z,178.3
2018-05-16T06:28:29.012Z,178.3
2018-05-16T06:33:29.526Z,204.4
2018-05-16T06:38:29.205Z,204.4
2018-05-16T06:43:28.666Z,191.2
2018-05-16T06:48:29.046Z,191.2
2018-05-16T06:53:29.560Z,178
2018-05-16T06:58:28.973Z,178
2018-05-16T07:03:29.437Z,350.5
2018-05-16T07:08:32.526Z,350.5
2018-05-16T07:13:28.962Z,206
2018-05-16T07:18:29.345Z,206
2018-05-16T07:23:28.813Z,414.2
2018-05-16T07:28:29.282Z,414.2
2018-05-16T07:33:28.824Z,547.5
2018-05-16T07:38:29.298Z,547.5
2018-05-16T07:43:28.702Z,482.6
2018-05-16T07:48:29.094Z,482.6
2018-05-16T07:53:28.665Z,523.6
2018-05-16T07:58:29.076Z,523.6
2018-05-16T08:03:29.655Z,536
2018-05-16T08:08:28.827Z,536
2018-05-16T08:13:29.295Z,570.2
2018-05-16T08:18:28.960Z,570.2
2018-05-16T08:23:29.449Z,622.5
2018-05-16T08:28:28.960Z,622.5
2018-05-16T08:33:29.386Z,374.4
2018-05-16T08:38:28.764Z,374.4
2018-05-16T08:43:29.197Z,571.3
2018-05-16T08:48:28.969Z,571.3
2018-05-16T08:53:29.600Z,663.4
2018-05-16T08:58:29.003Z,663.4
2018-05-16T09:03:29.534Z,476.4
2018-05-16T09:08:29.000Z,476.4
2018-05-16T09:13:29.549Z,734.6
2018-05-16T09:18:28.945Z,734.6
2018-05-16T09:23:29.372Z,653.8
2018-05-16T09:28:28.762Z,653.8
2018-05-16T09:33:29.295Z,496
2018-05-16T09:38:29.667Z,496
2018-05-16T09:43:29.023Z,642.5
2018-05-16T09:48:29.437Z,642.5
2018-05-16T09:53:28.825Z,680
2018-05-16T09:58:29.230Z,680
2018-05-16T10:03:29.885Z,719
2018-05-16T10:08:29.162Z,719
2018-05-16T10:13:29.581Z,729.8
2018-05-16T10:18:28.962Z,729.8
2018-05-16T10:23:29.438Z,763.6
2018-05-16T10:28:28.799Z,763.6
2018-05-16T10:33:29.300Z,812.7
2018-05-16T10:38:29.706Z,812.7
2018-05-16T10:43:29.029Z,728.6
2018-05-16T10:48:29.482Z,728.6
2018-05-16T10:53:28.860Z,727
2018-05-16T10:58:29.244Z,727
2018-05-16T11:03:29.856Z,774.4
2018-05-16T11:08:29.384Z,774.4
2018-05-16T11:13:29.867Z,797.8
2018-05-16T11:18:29.393Z,797.8
2018-05-16T11:23:29.287Z,771.4
2018-05-16T11:28:29.179Z,771.4
2018-05-16T11:33:29.602Z,742.7
2018-05-16T11:38:29.068Z,742.7
2018-05-16T11:43:29.445Z,768.8
2018-05-16T11:48:29.012Z,768.8
2018-05-16T11:53:29.743Z,763.8
2018-05-16T11:58:29.669Z,763.8
2018-05-16T12:03:29.250Z,745.2
2018-05-16T12:08:29.312Z,745.2
2018-05-16T12:13:29.355Z,768.6
2018-05-16T12:18:29.072Z,768.6
2018-05-16T12:23:29.617Z,740.2
2018-05-16T12:28:28.908Z,740.2
2018-05-16T12:33:29.415Z,175.5
2018-05-16T12:38:29.923Z,175.5
2018-05-16T12:43:29.340Z,130
2018-05-16T12:48:29.822Z,130
2018-05-16T12:53:29.319Z,115
2018-05-16T12:58:29.469Z,115
2018-05-16T13:03:29.953Z,150.2
2018-05-16T13:08:29.562Z,150.2
2018-05-16T13:13:29.079Z,126.7
2018-05-16T13:18:29.499Z,126.7
2018-05-16T13:23:30.014Z,124.8
2018-05-16T13:28:29.526Z,124.8
2018-05-16T13:33:29.131Z,172.5
2018-05-16T13:38:29.750Z,172.5
2018-05-16T13:43:29.238Z,185
2018-05-16T13:48:29.779Z,185
2018-05-16T13:53:29.266Z,407.8
2018-05-16T13:58:30.011Z,407.8
2018-05-16T14:03:30.077Z,635
2018-05-16T14:08:29.217Z,635
2018-05-16T14:13:29.879Z,609.3
2018-05-16T14:18:29.404Z,609.3
2018-05-16T14:23:29.893Z,601.4
2018-05-16T14:28:29.552Z,601.4
2018-05-16T14:33:29.200Z,494.7
2018-05-16T14:38:29.700Z,494.7
2018-05-16T14:43:29.318Z,139
2018-05-16T14:48:30.019Z,139
2018-05-16T14:53:29.751Z,121.2
2018-05-16T14:58:29.358Z,121.2
2018-05-16T15:03:30.265Z,226.2
2018-05-16T15:08:29.865Z,226.2
2018-05-16T15:13:29.877Z,205.2
2018-05-16T15:18:29.521Z,205.2
2018-05-16T15:23:30.790Z,199.5
2018-05-16T15:28:29.403Z,199.5
2018-05-16T15:33:29.950Z,70.5
2018-05-16T15:38:29.686Z,70.5
2018-05-16T15:43:29.313Z,70.2
2018-05-16T15:48:29.855Z,70.2
2018-05-16T15:53:29.490Z,68.2
2018-05-16T15:58:30.086Z,68.2
2018-05-16T16:03:29.831Z,65.8
2018-05-16T16:08:29.326Z,65.8
2018-05-16T16:13:29.246Z,63
2018-05-16T16:18:29.750Z,63
2018-05-16T16:23:30.087Z,81.2
2018-05-16T16:28:29.500Z,81.2
2018-05-16T16:33:29.980Z,86.2
2018-05-16T16:38:29.437Z,86.2
2018-05-16T16:43:29.912Z,67.3
2018-05-16T16:48:29.315Z,67.3
2018-05-16T16:53:29.671Z,61
2018-05-16T16:58:30.148Z,61
2018-05-16T17:03:29.657Z,58
2018-05-16T17:08:30.070Z,58
2018-05-16T17:13:29.484Z,53.2
2018-05-16T17:18:29.859Z,53.2
2018-05-16T17:23:30.262Z,50
2018-05-16T17:28:29.724Z,50
2018-05-16T17:33:30.187Z,45.4
2018-05-16T17:38:29.682Z,45.4
2018-05-16T17:43:30.190Z,45
2018-05-16T17:48:29.702Z,45
2018-05-16T17:53:30.095Z,40
2018-05-16T17:58:29.416Z,40
2018-05-16T18:03:29.858Z,36
2018-05-16T18:08:30.264Z,36
2018-05-16T18:13:30.164Z,32.2
2018-05-16T18:18:29.661Z,32.2
2018-05-16T18:23:30.113Z,28
2018-05-16T18:28:29.494Z,28
2018-05-16T18:33:30.301Z,24
2018-05-16T18:38:29.792Z,24
2018-05-16T18:43:29.497Z,18.2
2018-05-16T18:48:29.924Z,18.2
2018-05-16T18:53:30.343Z,12.5
2018-05-16T18:58:29.696Z,12.5
2018-05-16T19:03:30.181Z,8
2018-05-16T19:08:29.571Z,8
2018-05-16T19:13:30.361Z,1.2
2018-05-16T19:18:29.876Z,1.2
2018-05-16T19:23:30.263Z,0
2018-05-16T19:28:29.619Z,0
2018-05-16T19:33:30.118Z,0
2018-05-16T19:38:29.528Z,0
2018-05-16T19:43:29.901Z,0
2018-05-16T19:48:30.413Z,0
2018-05-16T19:53:29.941Z,0
2018-05-16T19:58:30.431Z,0
2018-05-16T20:03:29.864Z,0
2018-05-16T20:08:30.398Z,0
2018-05-16T20:13:29.516Z,0
2018-05-16T20:18:30.139Z,0
2018-05-16T20:23:29.551Z,0
2018-05-16T20:28:29.985Z,0
2018-05-16T20:33:30.478Z,0
2018-05-16T20:38:29.831Z,0
2018-05-16T20:43:30.422Z,0
2018-05-16T20:48:29.963Z,0
2018-05-16T20:53:30.409Z,0
2018-05-16T20:58:29.785Z,0
2018-05-16T21:03:30.402Z,0
2018-05-16T21:08:29.664Z,0
2018-05-16T21:13:30.033Z,0
2018-05-16T21:18:30.450Z,0
2018-05-16T21:23:29.998Z,0
2018-05-16T21:28:30.367Z,0
2018-05-16T21:33:29.886Z,0
2018-05-16T21:38:30.382Z,0
2018-05-16T21:43:29.895Z,0
2018-05-16T21:48:30.332Z,0
2018-05-16T21:53:29.662Z,0
2018-05-16T21:58:30.119Z,0
2018-05-16T22:03:30.092Z,0
2018-05-16T22:08:30.570Z,0
2018-05-16T22:13:30.010Z,0
2018-05-16T22:18:30.294Z,0
2018-05-16T22:23:29.761Z,0
2018-05-16T22:28:30.163Z,0
2018-05-16T22:33:30.644Z,0
2018-05-16T22:38:30.139Z,0
2018-05-16T22:43:30.570Z,0
2018-05-16T22:48:29.940Z,0
2018-05-16T22:53:30.298Z,0
2018-05-16T22:58:29.639Z,0
2018-05-16T23:03:30.059Z,0
2018-05-16T23:08:29.935Z,0
2018-05-16T23:13:30.483Z,0
2018-05-16T23:18:30.490Z,0
2018-05-16T23:23:29.966Z,0
2018-05-16T23:28:30.375Z,0
2018-05-16T23:33:29.744Z,0
2018-05-16T23:38:30.163Z,0
2018-05-16T23:43:30.505Z,0
2018-05-16T23:48:29.912Z,0
2018-05-16T23:53:30.334Z,0
2018-05-16T23:58:29.838Z,0
